createdAt,value
2022-09-13T00:01:48.239Z,97089.88
2022-09-13T00:04:14.755Z,97093.50
2022-09-13T00:06:41.126Z,97099.66
2022-09-13T00:09:07.579Z,97093.84
2022-09-13T00:11:36.297Z,97083.38
2022-09-13T00:14:02.861Z,97088.13
2022-09-13T00:16:32.007Z,97075.22
2022-09-13T00:19:02.698Z,97072.69
2022-09-13T00:21:31.740Z,97083.41
2022-09-13T00:23:58.228Z,97077.28
2022-09-13T00:26:28.523Z,97075.22
2022-09-13T00:28:57.861Z,97075.41
2022-09-13T00:31:29.296Z,97072.63
2022-09-13T00:33:58.577Z,97070.31
2022-09-13T00:36:24.964Z,97072.75
2022-09-13T00:38:51.444Z,97063.88
2022-09-13T00:41:19.924Z,97058.00
2022-09-13T00:43:59.049Z,97055.47
2022-09-13T00:46:49.581Z,97054.63
2022-09-13T00:49:18.558Z,97054.19
2022-09-13T00:51:54.096Z,97050.63
2022-09-13T00:54:24.204Z,97054.63
2022-09-13T00:56:55.300Z,97049.47
2022-09-13T00:59:40.526Z,97047.06
2022-09-13T01:02:07.681Z,97044.94
2022-09-13T01:04:35.658Z,97043.75
2022-09-13T01:07:06.290Z,97041.69
2022-09-13T01:09:36.952Z,97030.91
2022-09-13T01:12:18.681Z,97028.31
2022-09-13T01:14:46.538Z,97023.78
2022-09-13T01:17:13.115Z,97026.91
2022-09-13T01:19:39.545Z,97028.75
2022-09-13T01:22:24.191Z,97030.13
2022-09-13T01:25:12.541Z,97029.19
2022-09-13T01:27:38.980Z,97024.72
2022-09-13T01:30:23.605Z,97027.09
2022-09-13T01:33:05.802Z,97027.13
2022-09-13T01:35:56.692Z,97022.06
2022-09-13T01:38:44.985Z,97014.72
2022-09-13T01:41:35.940Z,97008.38
2022-09-13T01:44:05.353Z,97009.25
2022-09-13T01:46:43.887Z,97004.41
2022-09-13T01:49:16.866Z,96996.56
2022-09-13T01:51:50.616Z,96995.94
2022-09-13T01:54:35.747Z,96999.34
2022-09-13T01:57:40.744Z,96998.03
2022-09-13T02:00:12.631Z,96989.28
2022-09-13T02:02:46.031Z,96984.00
2022-09-13T02:05:24.715Z,96984.94
2022-09-13T02:08:03.047Z,96990.47
2022-09-13T02:10:36.111Z,96989.56
2022-09-13T02:13:08.004Z,96991.72
2022-09-13T02:15:45.374Z,96993.50
2022-09-13T02:18:35.552Z,96994.94
2022-09-13T02:21:20.021Z,96984.16
2022-09-13T02:23:52.067Z,96988.41
2022-09-13T02:26:23.305Z,96985.56
2022-09-13T02:28:54.490Z,96988.06
2022-09-13T02:31:31.082Z,96975.50
2022-09-13T02:34:03.364Z,96981.69
2022-09-13T02:36:32.820Z,96982.91
2022-09-13T02:39:20.520Z,96989.38
2022-09-13T02:41:52.163Z,96989.75
2022-09-13T02:44:58.754Z,96997.56
2022-09-13T02:47:42.408Z,97002.25
2022-09-13T02:50:14.746Z,97001.16
2022-09-13T02:52:50.143Z,97002.47
2022-09-13T02:55:30.868Z,97008.69
2022-09-13T02:58:06.760Z,96997.13
2022-09-13T03:00:33.279Z,97004.97
2022-09-13T03:03:04.419Z,97010.41
2022-09-13T03:05:31.365Z,97006.38
2022-09-13T03:07:59.593Z,97013.97
2022-09-13T03:10:32.407Z,97013.38
2022-09-13T03:13:11.022Z,97015.88
2022-09-13T03:15:49.795Z,97008.41
2022-09-13T03:18:34.938Z,97003.66
2022-09-13T03:21:07.565Z,97005.63
2022-09-13T03:24:05.051Z,97005.53
2022-09-13T03:27:03.215Z,97015.19
2022-09-13T03:29:55.663Z,97020.56
2022-09-13T03:32:31.181Z,97018.13
2022-09-13T03:35:34.840Z,97013.63
2022-09-13T03:38:08.038Z,97014.19
2022-09-13T03:40:49.132Z,97013.97
2022-09-13T03:43:23.781Z,97013.16
2022-09-13T03:45:55.824Z,97012.81
2022-09-13T03:48:23.556Z,97007.59
2022-09-13T03:50:50.692Z,97012.56
2022-09-13T03:53:29.074Z,97014.34
2022-09-13T03:55:55.527Z,97011.03
2022-09-13T03:58:23.282Z,97009.50
2022-09-13T04:00:54.641Z,97014.19
2022-09-13T04:03:21.221Z,97007.81
2022-09-13T04:05:47.655Z,97001.03
2022-09-13T04:08:14.089Z,97002.72
2022-09-13T04:10:40.684Z,97002.38
2022-09-13T04:13:07.117Z,97002.97
2022-09-13T04:15:33.516Z,97005.69
2022-09-13T04:18:00.033Z,97014.34
2022-09-13T04:20:26.555Z,97019.44
2022-09-13T04:22:54.251Z,97015.31
2022-09-13T04:25:22.150Z,97021.09
2022-09-13T04:27:53.498Z,97011.03
2022-09-13T04:30:19.879Z,97010.56
2022-09-13T04:32:46.305Z,97005.94
2022-09-13T04:35:18.029Z,97011.13
2022-09-13T04:37:44.485Z,97009.50
2022-09-13T04:40:14.520Z,97012.81
2022-09-13T04:42:43.653Z,97001.09
2022-09-13T04:45:10.631Z,97001.78
2022-09-13T04:47:37.026Z,97005.25
2022-09-13T04:50:04.020Z,96996.00
2022-09-13T04:52:30.444Z,96991.25
2022-09-13T04:55:00.251Z,97002.50
2022-09-13T04:57:26.984Z,97011.50
2022-09-13T04:59:53.377Z,97024.31
2022-09-13T05:02:19.979Z,97024.88
2022-09-13T05:04:46.392Z,97026.22
2022-09-13T05:07:12.799Z,97016.97
2022-09-13T05:09:39.551Z,97024.66
2022-09-13T05:12:06.114Z,97026.44
2022-09-13T05:14:32.647Z,97024.19
2022-09-13T05:16:59.044Z,97028.81
2022-09-13T05:19:25.550Z,97041.84
2022-09-13T05:21:54.243Z,97036.53
2022-09-13T05:24:20.676Z,97041.84
2022-09-13T05:26:47.170Z,97051.44
2022-09-13T05:29:13.675Z,97040.78
2022-09-13T05:31:41.963Z,97052.25
2022-09-13T05:34:11.299Z,97049.91
2022-09-13T05:36:38.222Z,97043.97
2022-09-13T05:39:29.752Z,97040.81
2022-09-13T05:41:52.135Z,97049.34
2022-09-13T05:44:18.610Z,97047.31
2022-09-13T05:46:48.651Z,97058.84
2022-09-13T05:49:15.403Z,97047.53
2022-09-13T05:51:41.883Z,97042.97
2022-09-13T05:54:11.000Z,97035.78
2022-09-13T05:56:37.364Z,97035.44
2022-09-13T05:59:03.784Z,97034.16
2022-09-13T06:01:30.234Z,97032.44
2022-09-13T06:03:58.962Z,97020.06
2022-09-13T06:06:25.737Z,97025.47
2022-09-13T06:08:56.783Z,97020.69
2022-09-13T06:11:25.521Z,97021.59
2022-09-13T06:13:53.215Z,97019.84
2022-09-13T06:16:20.650Z,97019.47
2022-09-13T06:18:47.105Z,97008.25
2022-09-13T06:21:18.074Z,97009.50
2022-09-13T06:23:51.009Z,97015.31
2022-09-13T06:26:19.581Z,97017.13
2022-09-13T06:28:51.147Z,97020.84
2022-09-13T06:31:22.337Z,97020.47
2022-09-13T06:33:49.286Z,97024.19
2022-09-13T06:36:20.741Z,97012.91
2022-09-13T06:38:48.984Z,97007.22
2022-09-13T06:41:23.570Z,97001.41
2022-09-13T06:43:55.196Z,97003.97
2022-09-13T06:46:25.285Z,97002.13
2022-09-13T06:48:55.082Z,96998.06
2022-09-13T06:51:24.125Z,96996.34
2022-09-13T06:53:52.028Z,96998.53
2022-09-13T06:56:21.100Z,96998.97
2022-09-13T06:58:50.105Z,96998.25
2022-09-13T07:01:21.020Z,97006.28
2022-09-13T07:03:50.633Z,97002.44
2022-09-13T07:06:22.347Z,97006.00
2022-09-13T07:08:51.032Z,97019.44
2022-09-13T07:11:20.034Z,97019.72
2022-09-13T07:13:54.376Z,97024.72
2022-09-13T07:16:25.001Z,97037.81
2022-09-13T07:18:56.967Z,97044.75
2022-09-13T07:21:24.237Z,97044.47
2022-09-13T07:23:52.524Z,97037.53
2022-09-13T07:26:19.339Z,97039.50
2022-09-13T07:28:47.937Z,97039.03
2022-09-13T07:31:24.046Z,97041.16
2022-09-13T07:33:58.494Z,97032.63
2022-09-13T07:36:26.180Z,97033.66
2022-09-13T07:38:52.738Z,97026.31
2022-09-13T07:41:23.364Z,97037.63
2022-09-13T07:43:50.179Z,97024.38
2022-09-13T07:46:18.625Z,97026.47
2022-09-13T07:48:46.577Z,97023.28
2022-09-13T07:51:17.782Z,97027.19
2022-09-13T07:53:45.527Z,97019.75
2022-09-13T07:56:14.521Z,97025.97
2022-09-13T07:58:43.014Z,97027.09
2022-09-13T08:01:09.503Z,97025.25
2022-09-13T08:03:37.072Z,97030.97
2022-09-13T08:06:05.166Z,97040.75
2022-09-13T08:08:32.555Z,97041.28
2022-09-13T08:11:02.815Z,97051.13
2022-09-13T08:13:29.328Z,97055.50
2022-09-13T08:15:56.442Z,97050.63
2022-09-13T08:18:25.854Z,97048.44
2022-09-13T08:20:57.160Z,97048.72
2022-09-13T08:23:24.200Z,97047.72
2022-09-13T08:25:50.885Z,97046.09
2022-09-13T08:28:25.482Z,97043.19
2022-09-13T08:30:54.158Z,97034.81
2022-09-13T08:33:22.901Z,97036.97
2022-09-13T08:35:53.081Z,97035.41
2022-09-13T08:38:19.736Z,97029.69
2022-09-13T08:40:53.686Z,97027.22
2022-09-13T08:43:24.861Z,97035.41
2022-09-13T08:45:55.626Z,97031.72
2022-09-13T08:48:31.154Z,97027.59
2022-09-13T08:51:04.277Z,97026.00
2022-09-13T08:53:32.142Z,97017.44
2022-09-13T08:56:13.974Z,97015.47
2022-09-13T08:59:05.577Z,97005.88
2022-09-13T09:01:58.054Z,97000.94
2022-09-13T09:04:27.641Z,97002.81
2022-09-13T09:07:02.287Z,96984.84
2022-09-13T09:09:37.213Z,96980.97
2022-09-13T09:12:23.494Z,96977.53
2022-09-13T09:15:00.355Z,96981.22
2022-09-13T09:17:46.073Z,96982.16
2022-09-13T09:20:21.781Z,96988.63
2022-09-13T09:22:52.127Z,96983.94
2022-09-13T09:25:22.923Z,96985.25
2022-09-13T09:27:50.047Z,96972.25
2022-09-13T09:30:18.751Z,96975.19
2022-09-13T09:32:51.583Z,96966.94
2022-09-13T09:35:46.117Z,96954.53
2022-09-13T09:38:31.666Z,96956.38
2022-09-13T09:41:09.165Z,96957.75
2022-09-13T09:43:41.438Z,96964.88
2022-09-13T09:46:10.919Z,96969.31
2022-09-13T09:48:45.794Z,96960.69
2022-09-13T09:51:19.064Z,96961.78
2022-09-13T09:53:52.418Z,96956.00
2022-09-13T09:56:28.948Z,96964.28
2022-09-13T09:58:55.939Z,96959.88
2022-09-13T10:01:34.958Z,96955.06
2022-09-13T10:04:10.567Z,96955.44
2022-09-13T10:06:41.914Z,96948.06
2022-09-13T10:09:20.361Z,96949.94
2022-09-13T10:11:57.653Z,96942.25
2022-09-13T10:14:27.496Z,96940.94
2022-09-13T10:17:18.578Z,96939.59
2022-09-13T10:20:02.051Z,96930.78
2022-09-13T10:22:29.368Z,96922.25
2022-09-13T10:25:22.527Z,96916.00
2022-09-13T10:27:55.406Z,96923.84
2022-09-13T10:30:31.008Z,96915.28
2022-09-13T10:32:58.463Z,96914.41
2022-09-13T10:35:25.272Z,96920.47
2022-09-13T10:37:54.208Z,96920.75
2022-09-13T10:40:30.307Z,96924.88
2022-09-13T10:43:01.721Z,96920.66
2022-09-13T10:45:34.383Z,96919.13
2022-09-13T10:48:18.874Z,96905.31
2022-09-13T10:51:06.023Z,96908.50
2022-09-13T10:53:40.143Z,96902.63
2022-09-13T10:56:23.461Z,96898.28
2022-09-13T10:59:15.631Z,96907.25
2022-09-13T11:01:56.544Z,96902.31
2022-09-13T11:04:47.058Z,96889.00
2022-09-13T11:07:31.688Z,96898.00
2022-09-13T11:10:03.031Z,96889.53
2022-09-13T11:12:46.020Z,96886.47
2022-09-13T11:15:24.476Z,96889.25
2022-09-13T11:18:21.425Z,96877.44
2022-09-13T11:20:57.727Z,96881.81
2022-09-13T11:23:27.146Z,96881.72
2022-09-13T11:26:10.173Z,96871.72
2022-09-13T11:29:03.011Z,96867.84
2022-09-13T11:31:44.172Z,96867.19
2022-09-13T11:34:13.736Z,96863.63
2022-09-13T11:36:52.913Z,96868.53
2022-09-13T11:39:40.674Z,96863.19
2022-09-13T11:42:10.091Z,96854.03
2022-09-13T11:44:56.161Z,96861.53
2022-09-13T11:47:37.097Z,96852.66
2022-09-13T11:50:22.322Z,96854.63
2022-09-13T11:53:07.441Z,96851.13
2022-09-13T11:55:38.658Z,96851.31
2022-09-13T11:58:14.571Z,96851.78
2022-09-13T12:00:56.501Z,96850.16
2022-09-13T12:03:31.316Z,96847.03
2022-09-13T12:05:57.821Z,96845.44
2022-09-13T12:08:45.691Z,96844.28
2022-09-13T12:11:24.356Z,96841.03
2022-09-13T12:13:56.282Z,96835.53
2022-09-13T12:16:35.434Z,96824.84
2022-09-13T12:19:15.700Z,96823.56
2022-09-13T12:21:46.863Z,96823.25
2022-09-13T12:24:41.811Z,96826.06
2022-09-13T12:27:34.331Z,96818.06
2022-09-13T12:30:02.840Z,96820.75
2022-09-13T12:32:29.400Z,96817.72
2022-09-13T12:35:16.092Z,96817.84
2022-09-13T12:37:42.512Z,96826.63
2022-09-13T12:40:12.415Z,96825.28
2022-09-13T12:43:19.378Z,96832.16
2022-09-13T12:46:06.663Z,96826.91
2022-09-13T12:49:10.244Z,96835.44
2022-09-13T12:52:07.232Z,96837.06
2022-09-13T12:55:19.837Z,96843.22
2022-09-13T12:58:06.375Z,96841.38
2022-09-13T13:00:49.290Z,96842.00
2022-09-13T13:03:19.303Z,96841.41
2022-09-13T13:05:50.482Z,96838.00
2022-09-13T13:08:19.926Z,96832.97
2022-09-13T13:11:09.967Z,96829.75
2022-09-13T13:13:36.444Z,96817.84
2022-09-13T13:16:23.593Z,96814.03
2022-09-13T13:18:54.191Z,96816.50
2022-09-13T13:21:37.644Z,96808.66
2022-09-13T13:24:18.678Z,96801.25
2022-09-13T13:26:49.816Z,96802.31
2022-09-13T13:29:23.292Z,96800.22
2022-09-13T13:32:04.008Z,96794.16
2022-09-13T13:34:50.786Z,96796.44
2022-09-13T13:37:20.044Z,96795.44
2022-09-13T13:39:48.314Z,96796.47
2022-09-13T13:42:28.230Z,96791.22
2022-09-13T13:44:54.613Z,96791.19
2022-09-13T13:47:20.983Z,96792.25
2022-09-13T13:50:04.066Z,96792.72
2022-09-13T13:52:56.806Z,96796.44
2022-09-13T13:55:34.747Z,96799.69
2022-09-13T13:58:05.859Z,96795.50
2022-09-13T14:00:37.796Z,96795.75
2022-09-13T14:03:27.869Z,96795.50
2022-09-13T14:06:19.521Z,96788.53
2022-09-13T14:09:07.230Z,96786.78
2022-09-13T14:11:52.300Z,96788.44
2022-09-13T14:14:47.477Z,96789.34
2022-09-13T14:17:35.128Z,96787.72
2022-09-13T14:20:10.669Z,96791.91
2022-09-13T14:22:37.208Z,96791.31
2022-09-13T14:25:24.714Z,96790.38
2022-09-13T14:27:56.877Z,96793.66
2022-09-13T14:30:29.746Z,96793.41
2022-09-13T14:33:01.209Z,96795.94
2022-09-13T14:35:32.447Z,96789.53
2022-09-13T14:38:33.469Z,96787.03
2022-09-13T14:41:15.440Z,96788.50
2022-09-13T14:43:43.696Z,96781.63
2022-09-13T14:46:38.571Z,96767.41
2022-09-13T14:49:17.061Z,96771.69
2022-09-13T14:51:48.730Z,96774.53
2022-09-13T14:54:26.809Z,96773.16
2022-09-13T14:56:57.136Z,96778.13
2022-09-13T14:59:35.880Z,96783.91
2022-09-13T15:02:16.417Z,96779.00
2022-09-13T15:04:47.134Z,96781.03
2022-09-13T15:07:36.856Z,96779.25
2022-09-13T15:10:12.410Z,96782.16
2022-09-13T15:12:57.917Z,96782.38
2022-09-13T15:15:24.363Z,96779.38
2022-09-13T15:18:01.555Z,96778.69
2022-09-13T15:20:45.167Z,96771.44
2022-09-13T15:23:18.421Z,96769.31
2022-09-13T15:25:54.546Z,96766.34
2022-09-13T15:28:25.914Z,96755.38
2022-09-13T15:30:53.844Z,96752.56
2022-09-13T15:33:28.627Z,96761.16
2022-09-13T15:36:17.523Z,96752.28
2022-09-13T15:39:02.978Z,96753.59
2022-09-13T15:41:37.101Z,96747.59
2022-09-13T15:44:06.119Z,96747.94
2022-09-13T15:46:34.722Z,96753.22
2022-09-13T15:49:08.400Z,96753.53
2022-09-13T15:51:39.099Z,96759.69
2022-09-13T15:54:12.898Z,96759.44
2022-09-13T15:56:41.651Z,96741.97
2022-09-13T15:59:12.956Z,96734.97
2022-09-13T16:01:44.340Z,96721.03
2022-09-13T16:04:12.006Z,96713.59
2022-09-13T16:06:39.309Z,96718.66
2022-09-13T16:09:21.147Z,96719.16
2022-09-13T16:11:51.353Z,96702.13
2022-09-13T16:14:21.911Z,96680.72
2022-09-13T16:16:51.590Z,96680.28
2022-09-13T16:19:23.313Z,96668.09
2022-09-13T16:21:52.491Z,96673.88
2022-09-13T16:24:21.219Z,96678.41
2022-09-13T16:26:47.620Z,96676.19
2022-09-13T16:29:14.141Z,96688.09
2022-09-13T16:31:45.460Z,96685.47
2022-09-13T16:34:14.245Z,96677.13
2022-09-13T16:36:40.745Z,96668.94
2022-09-13T16:39:09.577Z,96673.03
2022-09-13T16:41:36.069Z,96667.50
2022-09-13T16:44:05.171Z,96661.38
2022-09-13T16:46:34.063Z,96664.22
2022-09-13T16:49:00.544Z,96651.94
2022-09-13T16:51:29.083Z,96642.38
2022-09-13T16:53:55.825Z,96646.06
2022-09-13T16:56:24.351Z,96636.00
2022-09-13T16:58:54.156Z,96641.53
2022-09-13T17:01:25.470Z,96642.56
2022-09-13T17:03:55.332Z,96637.66
2022-09-13T17:06:23.682Z,96632.41
2022-09-13T17:09:01.209Z,96639.19
2022-09-13T17:11:30.477Z,96638.56
2022-09-13T17:13:57.370Z,96642.25
2022-09-13T17:16:33.273Z,96642.84
2022-09-13T17:19:03.401Z,96640.19
2022-09-13T17:21:34.524Z,96642.03
2022-09-13T17:24:01.916Z,96652.03
2022-09-13T17:26:28.839Z,96658.41
2022-09-13T17:28:57.584Z,96665.13
2022-09-13T17:31:24.086Z,96649.38
2022-09-13T17:33:53.360Z,96655.53
2022-09-13T17:36:24.748Z,96655.53
2022-09-13T17:38:57.375Z,96665.34
2022-09-13T17:41:25.633Z,96663.09
2022-09-13T17:43:53.521Z,96668.84
2022-09-13T17:46:24.384Z,96670.44
2022-09-13T17:48:52.765Z,96670.00
2022-09-13T17:51:22.090Z,96675.94
2022-09-13T17:53:58.398Z,96676.91
2022-09-13T17:56:33.761Z,96679.34
2022-09-13T17:59:15.412Z,96669.94
2022-09-13T18:01:48.799Z,96671.13
2022-09-13T18:04:19.842Z,96664.16
2022-09-13T18:06:53.749Z,96666.38
2022-09-13T18:09:24.257Z,96675.19
2022-09-13T18:11:51.170Z,96673.72
2022-09-13T18:14:19.114Z,96674.13
2022-09-13T18:16:46.172Z,96677.81
2022-09-13T18:19:13.082Z,96676.34
2022-09-13T18:21:42.500Z,96676.34
2022-09-13T18:24:09.278Z,96675.09
2022-09-13T18:26:36.882Z,96673.81
2022-09-13T18:29:10.367Z,96682.34
2022-09-13T18:31:37.563Z,96685.41
2022-09-13T18:34:10.777Z,96682.00
2022-09-13T18:36:38.239Z,96687.19
2022-09-13T18:39:06.768Z,96681.94
2022-09-13T18:41:34.864Z,96672.06
2022-09-13T18:44:02.218Z,96676.19
2022-09-13T18:46:32.065Z,96671.88
2022-09-13T18:48:59.163Z,96675.97
2022-09-13T18:51:33.216Z,96669.00
2022-09-13T18:54:01.110Z,96674.72
2022-09-13T18:56:28.666Z,96669.38
2022-09-13T18:58:56.738Z,96660.97
2022-09-13T19:01:26.705Z,96661.25
2022-09-13T19:04:02.353Z,96654.44
2022-09-13T19:06:34.336Z,96661.00
2022-09-13T19:09:02.153Z,96656.91
2022-09-13T19:11:46.500Z,96663.03
2022-09-13T19:14:26.078Z,96656.47
2022-09-13T19:16:55.011Z,96656.72
2022-09-13T19:19:22.280Z,96659.69
2022-09-13T19:21:51.438Z,96666.38
2022-09-13T19:24:21.293Z,96662.41
2022-09-13T19:26:51.838Z,96657.06
2022-09-13T19:29:20.871Z,96667.59
2022-09-13T19:31:52.473Z,96665.50
2022-09-13T19:34:22.832Z,96666.84
2022-09-13T19:36:52.543Z,96668.41
2022-09-13T19:39:19.075Z,96665.59
2022-09-13T19:41:45.489Z,96666.09
2022-09-13T19:44:15.397Z,96664.09
2022-09-13T19:46:45.232Z,96658.59
2022-09-13T19:49:14.540Z,96660.38
2022-09-13T19:51:42.615Z,96653.28
2022-09-13T19:54:12.295Z,96656.06
2022-09-13T19:56:42.302Z,96642.50
2022-09-13T19:59:15.379Z,96641.66
2022-09-13T20:01:44.378Z,96639.03
2022-09-13T20:04:14.928Z,96641.50
2022-09-13T20:06:46.878Z,96636.50
2022-09-13T20:09:15.274Z,96635.22
2022-09-13T20:11:45.736Z,96640.44
2022-09-13T20:14:17.306Z,96632.81
2022-09-13T20:16:44.648Z,96626.91
2022-09-13T20:22:06.137Z,96616.41
2022-09-13T20:24:32.734Z,96619.81
2022-09-13T20:27:01.443Z,96619.72
2022-09-13T20:29:32.037Z,96619.16
2022-09-13T20:31:59.535Z,96617.31
2022-09-13T20:34:27.095Z,96611.97
2022-09-13T20:36:53.642Z,96608.97
2022-09-13T20:39:24.906Z,96599.81
2022-09-13T20:41:51.397Z,96603.38
2022-09-13T20:44:17.868Z,96595.91
2022-09-13T20:46:46.638Z,96598.72
2022-09-13T20:49:13.263Z,96597.72
2022-09-13T20:51:42.317Z,96592.16
2022-09-13T20:54:14.584Z,96601.91
2022-09-13T20:56:43.736Z,96591.00
2022-09-13T20:59:10.587Z,96587.94
2022-09-13T21:01:37.202Z,96590.09
2022-09-13T21:04:04.466Z,96589.44
2022-09-13T21:06:37.822Z,96601.47
2022-09-13T21:09:04.623Z,96588.97
2022-09-13T21:11:40.141Z,96604.63
2022-09-13T21:14:11.341Z,96597.59
2022-09-13T21:16:41.993Z,96599.94
2022-09-13T21:19:09.217Z,96593.66
2022-09-13T21:21:41.066Z,96593.88
2022-09-13T21:24:14.388Z,96590.41
2022-09-13T21:26:42.286Z,96586.91
2022-09-13T21:29:10.319Z,96592.84
2022-09-13T21:31:39.513Z,96596.78
2022-09-13T21:34:08.581Z,96599.03
2022-09-13T21:36:35.851Z,96601.06
2022-09-13T21:39:03.581Z,96600.59
2022-09-13T21:41:33.491Z,96602.41
2022-09-13T21:44:02.915Z,96592.66
2022-09-13T21:46:32.167Z,96595.72
2022-09-13T21:49:03.104Z,96592.31
2022-09-13T21:51:31.056Z,96593.13
2022-09-13T21:54:02.137Z,96593.28
2022-09-13T21:56:30.976Z,96600.50
2022-09-13T21:59:11.833Z,96601.81
2022-09-13T22:01:39.692Z,96606.47
2022-09-13T22:04:09.476Z,96606.16
2022-09-13T22:06:36.727Z,96610.81
2022-09-13T22:09:06.632Z,96607.41
2022-09-13T22:11:40.651Z,96604.78
2022-09-13T22:14:11.857Z,96597.66
2022-09-13T22:16:42.131Z,96598.84
2022-09-13T22:19:12.825Z,96591.81
2022-09-13T22:21:41.914Z,96587.34
2022-09-13T22:24:15.831Z,96596.72
2022-09-13T22:26:43.337Z,96586.72
2022-09-13T22:29:10.087Z,96591.34
2022-09-13T22:31:41.368Z,96572.44
2022-09-13T22:34:14.810Z,96562.44
2022-09-13T22:36:44.059Z,96575.34
2022-09-13T22:39:14.891Z,96580.75
2022-09-13T22:41:44.227Z,96585.50
2022-09-13T22:44:11.256Z,96583.13
2022-09-13T22:46:42.525Z,96587.06
2022-09-13T22:49:14.984Z,96591.16
2022-09-13T22:51:44.869Z,96588.41
2022-09-13T22:54:14.212Z,96592.38
2022-09-13T22:56:43.158Z,96594.88
2022-09-13T22:59:15.126Z,96585.59
2022-09-13T23:01:44.545Z,96583.97
2022-09-13T23:04:11.739Z,96584.63
2022-09-13T23:06:41.074Z,96587.75
2022-09-13T23:09:08.668Z,96580.38
2022-09-13T23:11:38.050Z,96586.28
2022-09-13T23:14:07.735Z,96584.97
2022-09-13T23:16:40.003Z,96596.44
2022-09-13T23:19:07.268Z,96599.06
2022-09-13T23:21:35.896Z,96587.09
2022-09-13T23:24:07.094Z,96591.84
2022-09-13T23:26:34.698Z,96586.53
2022-09-13T23:29:02.575Z,96591.16
2022-09-13T23:31:34.285Z,96578.53
2022-09-13T23:34:08.532Z,96577.75
2022-09-13T23:36:42.644Z,96570.84
2022-09-13T23:39:13.959Z,96559.59
2022-09-13T23:41:40.412Z,96551.53
2022-09-13T23:44:06.874Z,96534.56
2022-09-13T23:46:35.987Z,96512.31
2022-09-13T23:49:04.932Z,96501.31
2022-09-13T23:51:33.845Z,96497.66
2022-09-13T23:54:02.923Z,96513.78
2022-09-13T23:56:31.648Z,96530.16
2022-09-13T23:59:04.982Z,96537.69
